»·PEaware :: N7697G KBFL-KMHV

N7697G :: KBFL-KMHV

FLIGHT INFORMATION

Flight Status: Arrived
Operator: Privately registered:
United States
More flights under this callsign
Pilot: Carlos P. (20373)
Aircraft: CESSNA 172 SKYHAWK
(C172)
More flights by this aircraft type
Origin: KBFL Meadows
United States
Destination: KMHV Mojave
United States
More flights between these airports :: More routes between these airports
Route: +
File this flight plan on PilotEdge
Remarks:
Altitude:
(Current/Filed)
7,500ft
Speed:
(Current/Filed)
120kts
Departed: 30-Sep-18 06:00 PM
Arrived: 30-Sep-18 06:31 PM
Distance/Time
Traveled:
50nm/0:31
Distance/Time
To Go:
Arrived

Flight Plot

Page will automatically refresh every two minutes.


Map Options




Map Legend


Flown Route
Filed Route
Departure Airport
Arrival Airport
Navaid (VOR, NDB)
Fix

Horizontal Profiles

Position Reports

Time Latitude Longitude Heading Altitude Ground
Speed
30-Sep-18 17:43 35.429367 -119.046106 225 510ft 0kts
30-Sep-18 17:44 35.429367 -119.046106 225 510ft 0kts
30-Sep-18 17:45 35.429367 -119.046106 225 510ft 0kts
30-Sep-18 17:46 35.429367 -119.046106 225 510ft 0kts
30-Sep-18 17:47 35.429367 -119.046106 225 510ft 0kts
30-Sep-18 17:48 35.429367 -119.046106 225 510ft 0kts
30-Sep-18 17:49 35.429367 -119.046106 225 510ft 0kts
30-Sep-18 17:50 35.429367 -119.046106 225 510ft 0kts
30-Sep-18 17:51 35.429367 -119.046106 225 510ft 0kts
30-Sep-18 17:52 35.429367 -119.046106 225 510ft 0kts
30-Sep-18 17:53 35.429367 -119.046106 225 510ft 0kts
30-Sep-18 17:54 35.429367 -119.046106 225 510ft 0kts
30-Sep-18 17:55 35.429367 -119.046106 225 510ft 0kts
30-Sep-18 17:56 35.429367 -119.046106 225 510ft 0kts
30-Sep-18 17:57 35.429136 -119.046442 228 510ft 10kts
30-Sep-18 17:58 35.425937 -119.044563 176 510ft 10kts
30-Sep-18 17:59 35.425683 -119.044774 224 510ft 0kts
30-Sep-18 18:00 35.425683 -119.044774 224 510ft 0kts
30-Sep-18 18:01 35.425683 -119.044774 224 510ft 0kts
30-Sep-18 18:02 35.430792 -119.052362 315 646ft 78kts
30-Sep-18 18:03 35.445725 -119.073334 329 1571ft 89kts
30-Sep-18 18:04 35.449151 -119.056610 134 2366ft 96kts
30-Sep-18 18:05 35.434482 -119.031229 126 3210ft 92kts
30-Sep-18 18:06 35.420740 -119.004961 117 3986ft 94kts
30-Sep-18 18:07 35.407973 -118.976842 116 4722ft 96kts
30-Sep-18 18:08 35.394919 -118.948043 116 5415ft 98kts
30-Sep-18 18:09 35.381508 -118.918623 121 6101ft 100kts
30-Sep-18 18:10 35.367426 -118.888891 119 6800ft 102kts
30-Sep-18 18:11 35.353868 -118.857519 120 7451ft 104kts
30-Sep-18 18:12 35.338188 -118.823707 120 7602ft 118kts
30-Sep-18 18:13 35.321807 -118.787655 119 7551ft 125kts
30-Sep-18 18:14 35.305323 -118.750310 116 7511ft 125kts
30-Sep-18 18:15 35.288461 -118.713303 120 7501ft 123kts
30-Sep-18 18:16 35.271631 -118.677827 123 7544ft 121kts
30-Sep-18 18:17 35.254218 -118.642290 119 7571ft 122kts
30-Sep-18 18:18 35.237590 -118.606508 119 7596ft 122kts
30-Sep-18 18:19 35.222344 -118.569730 117 7628ft 122kts
30-Sep-18 18:20 35.206926 -118.532644 120 7655ft 122kts
30-Sep-18 18:21 35.190296 -118.496332 113 7684ft 122kts
30-Sep-18 18:22 35.176669 -118.458152 112 7702ft 123kts
30-Sep-18 18:23 35.164294 -118.419646 112 7704ft 123kts
30-Sep-18 18:24 35.150073 -118.381360 115 7708ft 123kts
30-Sep-18 18:25 35.135398 -118.344685 120 7653ft 124kts
30-Sep-18 18:26 35.118559 -118.308843 120 7449ft 121kts
30-Sep-18 18:27 35.102038 -118.273549 123 6487ft 119kts
30-Sep-18 18:28 35.085330 -118.239259 121 5435ft 117kts
30-Sep-18 18:29 35.071195 -118.204150 118 4259ft 116kts
30-Sep-18 18:30 35.068183 -118.166880 93 3844ft 111kts
30-Sep-18 18:31 35.068290 -118.129325 93 3694ft 109kts
30-Sep-18 18:32 35.059278 -118.132200 264 3067ft 55kts
30-Sep-18 18:33 35.059177 -118.147676 268 2795ft 22kts
30-Sep-18 18:34 35.058536 -118.149950 134 2795ft 0kts
30-Sep-18 18:35 35.058079 -118.149538 176 2795ft 14kts
30-Sep-18 18:36 35.057423 -118.155781 224 2795ft 19kts
30-Sep-18 18:37 35.056869 -118.156129 3 2795ft 0kts
30-Sep-18 18:38 35.056869 -118.156129 3 2795ft 0kts
30-Sep-18 18:39 35.056869 -118.156129 3 2795ft 0kts
30-Sep-18 18:40 35.056869 -118.156129 3 2795ft 0kts
30-Sep-18 18:41 35.056869 -118.156129 3 2795ft 0kts
30-Sep-18 18:42 35.056869 -118.156129 3 2795ft 0kts
30-Sep-18 18:43 35.056869 -118.156129 3 2795ft 0kts
30-Sep-18 18:44 35.056869 -118.156129 3 2795ft 0kts
30-Sep-18 18:45 35.056869 -118.156129 3 2795ft 0kts

Navigation Log

Ident Type
1. KBFL Airport
2. KMHV Airport